sensor_id;sensor_type;location;lat;lon;timestamp;temperature;humidity
33881;DHT22;20172;47.530;10.256;2024-01-30T00:02:18;2.70;99.90
33881;DHT22;20172;47.530;10.256;2024-01-30T00:04:46;2.70;99.90
33881;DHT22;20172;47.530;10.256;2024-01-30T00:07:12;2.60;99.90
33881;DHT22;20172;47.530;10.256;2024-01-30T00:09:38;2.50;99.90
33881;DHT22;20172;47.530;10.256;2024-01-30T00:12:05;2.40;99.90
33881;DHT22;20172;47.530;10.256;2024-01-30T00:14:31;2.40;99.90
33881;DHT22;20172;47.530;10.256;2024-01-30T00:16:57;2.40;99.90
33881;DHT22;20172;47.530;10.256;2024-01-30T00:19:22;2.40;99.90
33881;DHT22;20172;47.530;10.256;2024-01-30T00:21:48;2.50;99.90
33881;DHT22;20172;47.530;10.256;2024-01-30T00:24:13;2.50;99.90
33881;DHT22;20172;47.530;10.256;2024-01-30T00:26:39;2.40;99.90
33881;DHT22;20172;47.530;10.256;2024-01-30T00:29:04;2.20;99.90
33881;DHT22;20172;47.530;10.256;2024-01-30T00:31:30;2.20;99.90
33881;DHT22;20172;47.530;10.256;2024-01-30T00:33:55;2.20;99.90
33881;DHT22;20172;47.530;10.256;2024-01-30T00:36:21;2.30;99.90
33881;DHT22;20172;47.530;10.256;2024-01-30T00:38:46;2.50;99.90
33881;DHT22;20172;47.530;10.256;2024-01-30T00:41:16;2.60;99.90
33881;DHT22;20172;47.530;10.256;2024-01-30T00:43:42;2.80;99.90
33881;DHT22;20172;47.530;10.256;2024-01-30T00:46:08;3.00;99.90
33881;DHT22;20172;47.530;10.256;2024-01-30T00:48:33;3.30;99.90
33881;DHT22;20172;47.530;10.256;2024-01-30T00:50:59;3.30;99.90
33881;DHT22;20172;47.530;10.256;2024-01-30T00:53:24;3.40;99.90
33881;DHT22;20172;47.530;10.256;2024-01-30T00:55:50;3.50;99.90
33881;DHT22;20172;47.530;10.256;2024-01-30T00:58:15;3.40;99.90
33881;DHT22;20172;47.530;10.256;2024-01-30T01:00:41;3.10;99.90
33881;DHT22;20172;47.530;10.256;2024-01-30T01:03:06;2.90;99.90
33881;DHT22;20172;47.530;10.256;2024-01-30T01:05:32;2.80;99.90
33881;DHT22;20172;47.530;10.256;2024-01-30T01:07:57;2.70;99.90
33881;DHT22;20172;47.530;10.256;2024-01-30T01:10:23;2.60;99.90
33881;DHT22;20172;47.530;10.256;2024-01-30T01:12:48;2.50;99.90
33881;DHT22;20172;47.530;10.256;2024-01-30T01:15:15;2.50;99.90
33881;DHT22;20172;47.530;10.256;2024-01-30T01:17:40;2.50;99.90
33881;DHT22;20172;47.530;10.256;2024-01-30T01:20:06;2.40;99.90
33881;DHT22;20172;47.530;10.256;2024-01-30T01:22:32;2.40;99.90
33881;DHT22;20172;47.530;10.256;2024-01-30T01:25:00;2.40;99.90
33881;DHT22;20172;47.530;10.256;2024-01-30T01:27:26;2.30;99.90
33881;DHT22;20172;47.530;10.256;2024-01-30T01:29:52;2.30;99.90
33881;DHT22;20172;47.530;10.256;2024-01-30T01:32:17;2.30;99.90
33881;DHT22;20172;47.530;10.256;2024-01-30T01:34:43;2.30;99.90
33881;DHT22;20172;47.530;10.256;2024-01-30T01:37:09;2.30;99.90
33881;DHT22;20172;47.530;10.256;2024-01-30T01:39:34;2.30;99.90
33881;DHT22;20172;47.530;10.256;2024-01-30T01:42:00;2.30;99.90
33881;DHT22;20172;47.530;10.256;2024-01-30T01:44:26;2.30;99.90
33881;DHT22;20172;47.530;10.256;2024-01-30T01:46:52;2.20;99.90
33881;DHT22;20172;47.530;10.256;2024-01-30T01:49:17;2.20;99.90
33881;DHT22;20172;47.530;10.256;2024-01-30T01:51:44;2.30;99.90
33881;DHT22;20172;47.530;10.256;2024-01-30T01:54:10;2.30;99.90
33881;DHT22;20172;47.530;10.256;2024-01-30T01:56:36;2.30;99.90
33881;DHT22;20172;47.530;10.256;2024-01-30T01:59:09;2.40;99.90
33881;DHT22;20172;47.530;10.256;2024-01-30T02:01:38;2.50;99.90
33881;DHT22;20172;47.530;10.256;2024-01-30T02:04:04;2.50;99.90
33881;DHT22;20172;47.530;10.256;2024-01-30T02:06:29;2.50;99.90
33881;DHT22;20172;47.530;10.256;2024-01-30T02:08:55;2.40;99.90
33881;DHT22;20172;47.530;10.256;2024-01-30T02:11:21;2.30;99.90
33881;DHT22;20172;47.530;10.256;2024-01-30T02:13:47;2.30;99.90
33881;DHT22;20172;47.530;10.256;2024-01-30T02:16:13;2.30;99.90
33881;DHT22;20172;47.530;10.256;2024-01-30T02:18:38;2.30;99.90
33881;DHT22;20172;47.530;10.256;2024-01-30T02:21:08;2.20;99.90
33881;DHT22;20172;47.530;10.256;2024-01-30T02:23:34;2.40;99.90
33881;DHT22;20172;47.530;10.256;2024-01-30T02:25:59;2.40;99.90
33881;DHT22;20172;47.530;10.256;2024-01-30T02:28:25;2.40;99.90
33881;DHT22;20172;47.530;10.256;2024-01-30T02:30:51;2.40;99.90
33881;DHT22;20172;47.530;10.256;2024-01-30T02:33:17;2.40;99.90
33881;DHT22;20172;47.530;10.256;2024-01-30T02:35:42;2.40;99.90
33881;DHT22;20172;47.530;10.256;2024-01-30T02:38:08;2.30;99.90
33881;DHT22;20172;47.530;10.256;2024-01-30T02:40:33;2.20;99.90
33881;DHT22;20172;47.530;10.256;2024-01-30T02:42:59;2.20;99.90
33881;DHT22;20172;47.530;10.256;2024-01-30T02:45:25;2.10;99.90
33881;DHT22;20172;47.530;10.256;2024-01-30T02:47:51;2.00;99.90
33881;DHT22;20172;47.530;10.256;2024-01-30T02:50:16;2.00;99.90
33881;DHT22;20172;47.530;10.256;2024-01-30T02:52:42;2.00;99.90
33881;DHT22;20172;47.530;10.256;2024-01-30T02:55:09;2.10;99.90
33881;DHT22;20172;47.530;10.256;2024-01-30T02:57:35;2.00;99.90
33881;DHT22;20172;47.530;10.256;2024-01-30T03:00:00;2.00;99.90
33881;DHT22;20172;47.530;10.256;2024-01-30T03:02:26;2.00;99.90
33881;DHT22;20172;47.530;10.256;2024-01-30T03:04:51;2.00;99.90
33881;DHT22;20172;47.530;10.256;2024-01-30T03:07:17;2.10;99.90
33881;DHT22;20172;47.530;10.256;2024-01-30T03:09:42;2.10;99.90
33881;DHT22;20172;47.530;10.256;2024-01-30T03:12:09;2.20;99.90
33881;DHT22;20172;47.530;10.256;2024-01-30T03:14:34;2.30;99.90
33881;DHT22;20172;47.530;10.256;2024-01-30T03:17:00;2.30;99.90
33881;DHT22;20172;47.530;10.256;2024-01-30T03:19:25;2.30;99.90
33881;DHT22;20172;47.530;10.256;2024-01-30T03:21:51;2.30;99.90
33881;DHT22;20172;47.530;10.256;2024-01-30T03:24:17;2.40;99.90
33881;DHT22;20172;47.530;10.256;2024-01-30T03:26:43;2.30;99.90
33881;DHT22;20172;47.530;10.256;2024-01-30T03:29:08;2.30;99.90
33881;DHT22;20172;47.530;10.256;2024-01-30T03:31:34;2.20;99.90
33881;DHT22;20172;47.530;10.256;2024-01-30T03:33:59;2.00;99.90
33881;DHT22;20172;47.530;10.256;2024-01-30T03:36:25;2.00;99.90
33881;DHT22;20172;47.530;10.256;2024-01-30T03:38:51;1.90;99.90
33881;DHT22;20172;47.530;10.256;2024-01-30T03:41:16;1.90;99.90
33881;DHT22;20172;47.530;10.256;2024-01-30T03:43:42;1.90;99.90
33881;DHT22;20172;47.530;10.256;2024-01-30T03:46:07;1.90;99.90
33881;DHT22;20172;47.530;10.256;2024-01-30T03:48:33;1.90;99.90
33881;DHT22;20172;47.530;10.256;2024-01-30T03:50:59;1.90;99.90
33881;DHT22;20172;47.530;10.256;2024-01-30T03:53:24;2.00;99.90
33881;DHT22;20172;47.530;10.256;2024-01-30T03:55:50;2.10;99.90
33881;DHT22;20172;47.530;10.256;2024-01-30T03:58:16;2.30;99.90
33881;DHT22;20172;47.530;10.256;2024-01-30T04:00:41;2.40;99.90
33881;DHT22;20172;47.530;10.256;2024-01-30T04:03:07;2.50;99.90
33881;DHT22;20172;47.530;10.256;2024-01-30T04:05:33;2.40;99.90
33881;DHT22;20172;47.530;10.256;2024-01-30T04:07:58;2.40;99.90
33881;DHT22;20172;47.530;10.256;2024-01-30T04:10:24;2.40;99.90
33881;DHT22;20172;47.530;10.256;2024-01-30T04:12:50;2.40;99.90
33881;DHT22;20172;47.530;10.256;2024-01-30T04:15:17;2.50;99.90
33881;DHT22;20172;47.530;10.256;2024-01-30T04:17:42;2.50;99.90
33881;DHT22;20172;47.530;10.256;2024-01-30T04:20:09;2.40;99.90
33881;DHT22;20172;47.530;10.256;2024-01-30T04:22:37;2.40;99.90
33881;DHT22;20172;47.530;10.256;2024-01-30T04:25:02;2.20;99.90
33881;DHT22;20172;47.530;10.256;2024-01-30T04:27:28;2.10;99.90
33881;DHT22;20172;47.530;10.256;2024-01-30T04:29:54;2.00;99.90
33881;DHT22;20172;47.530;10.256;2024-01-30T04:32:19;2.00;99.90
33881;DHT22;20172;47.530;10.256;2024-01-30T04:34:45;1.90;99.90
33881;DHT22;20172;47.530;10.256;2024-01-30T04:37:10;1.80;99.90
33881;DHT22;20172;47.530;10.256;2024-01-30T04:39:36;1.90;99.90
33881;DHT22;20172;47.530;10.256;2024-01-30T04:42:02;2.00;99.90
33881;DHT22;20172;47.530;10.256;2024-01-30T04:44:28;2.10;99.90
33881;DHT22;20172;47.530;10.256;2024-01-30T04:46:53;2.10;99.90
33881;DHT22;20172;47.530;10.256;2024-01-30T04:49:19;2.10;99.90
33881;DHT22;20172;47.530;10.256;2024-01-30T04:51:44;2.10;99.90
33881;DHT22;20172;47.530;10.256;2024-01-30T04:54:10;1.90;99.90
33881;DHT22;20172;47.530;10.256;2024-01-30T04:56:35;1.80;99.90
33881;DHT22;20172;47.530;10.256;2024-01-30T04:59:02;1.70;99.90
33881;DHT22;20172;47.530;10.256;2024-01-30T05:01:27;1.60;99.90
33881;DHT22;20172;47.530;10.256;2024-01-30T05:03:53;1.60;99.90
33881;DHT22;20172;47.530;10.256;2024-01-30T05:06:25;1.60;99.90
33881;DHT22;20172;47.530;10.256;2024-01-30T05:08:51;1.70;99.90
33881;DHT22;20172;47.530;10.256;2024-01-30T05:11:16;1.70;99.90
33881;DHT22;20172;47.530;10.256;2024-01-30T05:13:41;1.60;99.90
33881;DHT22;20172;47.530;10.256;2024-01-30T05:16:07;1.60;99.90
33881;DHT22;20172;47.530;10.256;2024-01-30T05:18:32;1.70;99.90
33881;DHT22;20172;47.530;10.256;2024-01-30T05:20:58;1.70;99.90
33881;DHT22;20172;47.530;10.256;2024-01-30T05:23:24;1.80;99.90
33881;DHT22;20172;47.530;10.256;2024-01-30T05:25:50;1.80;99.90
33881;DHT22;20172;47.530;10.256;2024-01-30T05:28:16;1.80;99.90
33881;DHT22;20172;47.530;10.256;2024-01-30T05:30:41;1.80;99.90
33881;DHT22;20172;47.530;10.256;2024-01-30T05:33:07;1.70;99.90
33881;DHT22;20172;47.530;10.256;2024-01-30T05:35:32;1.70;99.90
33881;DHT22;20172;47.530;10.256;2024-01-30T05:37:58;1.60;99.90
33881;DHT22;20172;47.530;10.256;2024-01-30T05:40:23;1.60;99.90
33881;DHT22;20172;47.530;10.256;2024-01-30T05:42:49;1.60;99.90
33881;DHT22;20172;47.530;10.256;2024-01-30T05:45:14;1.60;99.90
33881;DHT22;20172;47.530;10.256;2024-01-30T05:47:40;1.60;99.90
33881;DHT22;20172;47.530;10.256;2024-01-30T05:50:05;1.60;99.90
33881;DHT22;20172;47.530;10.256;2024-01-30T05:52:31;1.60;99.90
33881;DHT22;20172;47.530;10.256;2024-01-30T05:54:57;1.70;99.90
33881;DHT22;20172;47.530;10.256;2024-01-30T05:57:22;2.00;99.90
33881;DHT22;20172;47.530;10.256;2024-01-30T05:59:48;2.10;99.90
33881;DHT22;20172;47.530;10.256;2024-01-30T06:02:13;2.10;99.90
33881;DHT22;20172;47.530;10.256;2024-01-30T06:04:39;2.10;99.90
33881;DHT22;20172;47.530;10.256;2024-01-30T06:07:05;1.90;99.90
33881;DHT22;20172;47.530;10.256;2024-01-30T06:09:31;1.90;99.90
33881;DHT22;20172;47.530;10.256;2024-01-30T06:11:57;1.80;99.90
33881;DHT22;20172;47.530;10.256;2024-01-30T06:14:23;1.80;99.90
33881;DHT22;20172;47.530;10.256;2024-01-30T06:16:48;1.70;99.90
33881;DHT22;20172;47.530;10.256;2024-01-30T06:19:14;1.70;99.90
33881;DHT22;20172;47.530;10.256;2024-01-30T06:21:40;1.60;99.90
33881;DHT22;20172;47.530;10.256;2024-01-30T06:24:05;1.60;99.90
33881;DHT22;20172;47.530;10.256;2024-01-30T06:26:31;1.60;99.90
33881;DHT22;20172;47.530;10.256;2024-01-30T06:28:56;1.60;99.90
33881;DHT22;20172;47.530;10.256;2024-01-30T06:31:22;1.60;99.90
33881;DHT22;20172;47.530;10.256;2024-01-30T06:33:47;1.70;99.90
33881;DHT22;20172;47.530;10.256;2024-01-30T06:36:13;1.60;99.90
33881;DHT22;20172;47.530;10.256;2024-01-30T06:38:39;1.70;99.90
33881;DHT22;20172;47.530;10.256;2024-01-30T06:41:04;1.70;99.90
33881;DHT22;20172;47.530;10.256;2024-01-30T06:43:30;1.60;99.90
33881;DHT22;20172;47.530;10.256;2024-01-30T06:45:55;1.70;99.90
33881;DHT22;20172;47.530;10.256;2024-01-30T06:48:21;1.60;99.90
33881;DHT22;20172;47.530;10.256;2024-01-30T06:50:46;1.60;99.90
33881;DHT22;20172;47.530;10.256;2024-01-30T06:53:13;1.50;99.90
33881;DHT22;20172;47.530;10.256;2024-01-30T06:55:38;1.40;99.90
33881;DHT22;20172;47.530;10.256;2024-01-30T06:58:04;1.40;99.90
33881;DHT22;20172;47.530;10.256;2024-01-30T07:00:29;1.30;99.90
33881;DHT22;20172;47.530;10.256;2024-01-30T07:02:55;1.40;99.90
33881;DHT22;20172;47.530;10.256;2024-01-30T07:05:21;1.50;99.90
33881;DHT22;20172;47.530;10.256;2024-01-30T07:07:47;1.50;99.90
33881;DHT22;20172;47.530;10.256;2024-01-30T07:10:12;1.60;99.90
33881;DHT22;20172;47.530;10.256;2024-01-30T07:12:40;1.60;99.90
33881;DHT22;20172;47.530;10.256;2024-01-30T07:15:06;1.60;99.90
33881;DHT22;20172;47.530;10.256;2024-01-30T07:17:34;1.70;99.90
33881;DHT22;20172;47.530;10.256;2024-01-30T07:20:00;1.80;99.90
33881;DHT22;20172;47.530;10.256;2024-01-30T07:22:25;1.80;99.90
33881;DHT22;20172;47.530;10.256;2024-01-30T07:24:51;1.90;99.90
33881;DHT22;20172;47.530;10.256;2024-01-30T07:27:17;2.00;99.90
33881;DHT22;20172;47.530;10.256;2024-01-30T07:29:43;2.00;99.90
33881;DHT22;20172;47.530;10.256;2024-01-30T07:32:09;2.10;99.90
33881;DHT22;20172;47.530;10.256;2024-01-30T07:34:34;2.20;99.90
33881;DHT22;20172;47.530;10.256;2024-01-30T07:37:01;2.40;99.90
33881;DHT22;20172;47.530;10.256;2024-01-30T07:39:27;2.70;99.90
33881;DHT22;20172;47.530;10.256;2024-01-30T07:41:53;3.00;99.90
33881;DHT22;20172;47.530;10.256;2024-01-30T07:44:18;3.60;99.90
33881;DHT22;20172;47.530;10.256;2024-01-30T07:46:44;4.50;99.90
33881;DHT22;20172;47.530;10.256;2024-01-30T07:49:10;5.20;99.90
33881;DHT22;20172;47.530;10.256;2024-01-30T07:51:35;5.40;99.90
33881;DHT22;20172;47.530;10.256;2024-01-30T07:54:01;5.30;99.90
33881;DHT22;20172;47.530;10.256;2024-01-30T07:56:26;5.10;99.90
33881;DHT22;20172;47.530;10.256;2024-01-30T07:58:52;5.00;99.90
33881;DHT22;20172;47.530;10.256;2024-01-30T08:01:18;4.80;99.90
33881;DHT22;20172;47.530;10.256;2024-01-30T08:03:44;4.80;99.90
33881;DHT22;20172;47.530;10.256;2024-01-30T08:06:09;4.80;99.90
33881;DHT22;20172;47.530;10.256;2024-01-30T08:08:35;4.70;99.90
33881;DHT22;20172;47.530;10.256;2024-01-30T08:11:00;4.70;99.90
33881;DHT22;20172;47.530;10.256;2024-01-30T08:13:26;4.80;99.90
33881;DHT22;20172;47.530;10.256;2024-01-30T08:15:51;4.80;99.90
33881;DHT22;20172;47.530;10.256;2024-01-30T08:18:17;5.00;99.90
33881;DHT22;20172;47.530;10.256;2024-01-30T08:20:42;5.40;99.90
33881;DHT22;20172;47.530;10.256;2024-01-30T08:23:08;6.30;99.90
33881;DHT22;20172;47.530;10.256;2024-01-30T08:25:33;7.60;99.90
33881;DHT22;20172;47.530;10.256;2024-01-30T08:27:59;8.90;99.90
33881;DHT22;20172;47.530;10.256;2024-01-30T08:30:25;10.30;99.90
33881;DHT22;20172;47.530;10.256;2024-01-30T08:32:51;11.50;99.90
33881;DHT22;20172;47.530;10.256;2024-01-30T08:35:17;12.60;99.90
33881;DHT22;20172;47.530;10.256;2024-01-30T08:37:42;13.50;99.90
33881;DHT22;20172;47.530;10.256;2024-01-30T08:40:08;14.30;96.70
33881;DHT22;20172;47.530;10.256;2024-01-30T08:42:34;14.80;94.60
33881;DHT22;20172;47.530;10.256;2024-01-30T08:44:59;15.10;92.20
33881;DHT22;20172;47.530;10.256;2024-01-30T08:47:25;15.20;91.10
33881;DHT22;20172;47.530;10.256;2024-01-30T08:49:51;15.60;90.30
33881;DHT22;20172;47.530;10.256;2024-01-30T08:52:16;15.90;88.10
33881;DHT22;20172;47.530;10.256;2024-01-30T08:54:42;16.50;85.60
33881;DHT22;20172;47.530;10.256;2024-01-30T08:57:08;17.00;82.80
33881;DHT22;20172;47.530;10.256;2024-01-30T08:59:33;17.20;79.90
33881;DHT22;20172;47.530;10.256;2024-01-30T09:01:59;17.50;77.10
33881;DHT22;20172;47.530;10.256;2024-01-30T09:04:25;17.80;75.10
33881;DHT22;20172;47.530;10.256;2024-01-30T09:06:50;18.00;72.20
33881;DHT22;20172;47.530;10.256;2024-01-30T09:09:16;18.00;70.40
33881;DHT22;20172;47.530;10.256;2024-01-30T09:11:43;18.30;70.00
33881;DHT22;20172;47.530;10.256;2024-01-30T09:14:08;18.90;68.80
33881;DHT22;20172;47.530;10.256;2024-01-30T09:16:34;19.70;66.10
33881;DHT22;20172;47.530;10.256;2024-01-30T09:18:59;20.00;64.20
33881;DHT22;20172;47.530;10.256;2024-01-30T09:21:25;20.40;63.60
33881;DHT22;20172;47.530;10.256;2024-01-30T09:23:53;20.90;60.70
33881;DHT22;20172;47.530;10.256;2024-01-30T09:26:19;20.90;59.30
33881;DHT22;20172;47.530;10.256;2024-01-30T09:28:45;21.00;59.30
33881;DHT22;20172;47.530;10.256;2024-01-30T09:31:11;21.30;58.70
33881;DHT22;20172;47.530;10.256;2024-01-30T09:33:36;21.60;58.10
33881;DHT22;20172;47.530;10.256;2024-01-30T09:36:02;22.10;57.20
33881;DHT22;20172;47.530;10.256;2024-01-30T09:38:28;21.90;55.90
33881;DHT22;20172;47.530;10.256;2024-01-30T09:40:54;21.50;56.10
33881;DHT22;20172;47.530;10.256;2024-01-30T09:43:22;21.30;56.20
33881;DHT22;20172;47.530;10.256;2024-01-30T09:45:48;21.00;56.80
33881;DHT22;20172;47.530;10.256;2024-01-30T09:48:15;20.70;56.90
33881;DHT22;20172;47.530;10.256;2024-01-30T09:50:40;20.20;57.20
33881;DHT22;20172;47.530;10.256;2024-01-30T09:53:07;19.60;57.70
33881;DHT22;20172;47.530;10.256;2024-01-30T09:55:33;19.40;58.20
33881;DHT22;20172;47.530;10.256;2024-01-30T09:58:00;19.10;58.40
33881;DHT22;20172;47.530;10.256;2024-01-30T10:00:25;18.70;58.70
33881;DHT22;20172;47.530;10.256;2024-01-30T10:02:52;18.40;59.10
33881;DHT22;20172;47.530;10.256;2024-01-30T10:05:18;18.30;59.30
33881;DHT22;20172;47.530;10.256;2024-01-30T10:07:52;18.10;59.60
33881;DHT22;20172;47.530;10.256;2024-01-30T10:10:25;17.70;60.00
33881;DHT22;20172;47.530;10.256;2024-01-30T10:12:50;17.00;60.70
33881;DHT22;20172;47.530;10.256;2024-01-30T10:15:17;16.40;61.60
33881;DHT22;20172;47.530;10.256;2024-01-30T10:17:43;15.90;62.70
33881;DHT22;20172;47.530;10.256;2024-01-30T10:20:09;15.40;63.40
33881;DHT22;20172;47.530;10.256;2024-01-30T10:22:35;15.10;64.20
33881;DHT22;20172;47.530;10.256;2024-01-30T10:25:01;15.10;64.90
33881;DHT22;20172;47.530;10.256;2024-01-30T10:27:26;15.10;64.90
33881;DHT22;20172;47.530;10.256;2024-01-30T10:29:52;15.20;65.10
33881;DHT22;20172;47.530;10.256;2024-01-30T10:32:19;15.20;65.10
33881;DHT22;20172;47.530;10.256;2024-01-30T10:34:45;15.20;65.70
33881;DHT22;20172;47.530;10.256;2024-01-30T10:37:10;15.40;66.00
33881;DHT22;20172;47.530;10.256;2024-01-30T10:39:42;15.60;65.60
33881;DHT22;20172;47.530;10.256;2024-01-30T10:42:15;15.80;65.50
33881;DHT22;20172;47.530;10.256;2024-01-30T10:47:11;17.20;65.40
33881;DHT22;20172;47.530;10.256;2024-01-30T10:49:39;18.80;64.30
33881;DHT22;20172;47.530;10.256;2024-01-30T10:52:05;20.50;61.50
33881;DHT22;20172;47.530;10.256;2024-01-30T10:54:31;22.10;59.30
33881;DHT22;20172;47.530;10.256;2024-01-30T10:56:57;23.30;56.90
33881;DHT22;20172;47.530;10.256;2024-01-30T10:59:26;24.20;55.30
33881;DHT22;20172;47.530;10.256;2024-01-30T11:01:53;25.00;53.60
33881;DHT22;20172;47.530;10.256;2024-01-30T11:04:18;25.20;52.60
33881;DHT22;20172;47.530;10.256;2024-01-30T11:06:44;25.40;52.00
33881;DHT22;20172;47.530;10.256;2024-01-30T11:09:10;25.80;51.60
33881;DHT22;20172;47.530;10.256;2024-01-30T11:11:56;26.40;50.70
33881;DHT22;20172;47.530;10.256;2024-01-30T11:14:26;27.40;49.20
33881;DHT22;20172;47.530;10.256;2024-01-30T11:16:51;28.00;47.50
33881;DHT22;20172;47.530;10.256;2024-01-30T11:19:23;28.30;46.80
33881;DHT22;20172;47.530;10.256;2024-01-30T11:21:51;28.30;45.90
33881;DHT22;20172;47.530;10.256;2024-01-30T11:24:19;28.40;45.30
33881;DHT22;20172;47.530;10.256;2024-01-30T11:26:44;28.50;44.90
33881;DHT22;20172;47.530;10.256;2024-01-30T11:29:13;28.60;44.70
33881;DHT22;20172;47.530;10.256;2024-01-30T11:31:38;28.10;43.70
33881;DHT22;20172;47.530;10.256;2024-01-30T11:34:04;27.60;44.20
33881;DHT22;20172;47.530;10.256;2024-01-30T11:36:30;27.30;44.70
33881;DHT22;20172;47.530;10.256;2024-01-30T11:38:57;27.00;45.00
33881;DHT22;20172;47.530;10.256;2024-01-30T11:41:23;26.60;45.40
33881;DHT22;20172;47.530;10.256;2024-01-30T11:43:52;26.10;45.90
33881;DHT22;20172;47.530;10.256;2024-01-30T11:46:18;26.00;46.50
33881;DHT22;20172;47.530;10.256;2024-01-30T11:48:43;26.50;45.90
33881;DHT22;20172;47.530;10.256;2024-01-30T11:51:09;27.00;45.00
33881;DHT22;20172;47.530;10.256;2024-01-30T11:53:34;27.00;44.10
33881;DHT22;20172;47.530;10.256;2024-01-30T11:56:00;27.10;44.50
33881;DHT22;20172;47.530;10.256;2024-01-30T11:58:25;26.70;43.60
33881;DHT22;20172;47.530;10.256;2024-01-30T12:00:55;26.20;44.20
33881;DHT22;20172;47.530;10.256;2024-01-30T12:03:21;25.70;44.30
33881;DHT22;20172;47.530;10.256;2024-01-30T12:05:46;25.70;44.90
33881;DHT22;20172;47.530;10.256;2024-01-30T12:08:14;25.60;44.50
33881;DHT22;20172;47.530;10.256;2024-01-30T12:10:39;25.70;44.60
33881;DHT22;20172;47.530;10.256;2024-01-30T12:13:05;25.00;44.30
33881;DHT22;20172;47.530;10.256;2024-01-30T12:15:31;24.20;45.10
33881;DHT22;20172;47.530;10.256;2024-01-30T12:18:06;23.60;45.40
33881;DHT22;20172;47.530;10.256;2024-01-30T12:20:31;24.00;45.60
33881;DHT22;20172;47.530;10.256;2024-01-30T12:22:57;25.60;44.00
33881;DHT22;20172;47.530;10.256;2024-01-30T12:25:23;25.90;41.70
33881;DHT22;20172;47.530;10.256;2024-01-30T12:27:49;25.50;42.80
33881;DHT22;20172;47.530;10.256;2024-01-30T12:30:18;25.50;42.90
33881;DHT22;20172;47.530;10.256;2024-01-30T12:32:45;26.70;42.90
33881;DHT22;20172;47.530;10.256;2024-01-30T12:35:14;28.10;41.50
33881;DHT22;20172;47.530;10.256;2024-01-30T12:37:40;29.00;40.40
33881;DHT22;20172;47.530;10.256;2024-01-30T12:40:09;29.50;40.00
33881;DHT22;20172;47.530;10.256;2024-01-30T12:42:35;29.40;39.30
33881;DHT22;20172;47.530;10.256;2024-01-30T12:45:04;29.10;39.10
33881;DHT22;20172;47.530;10.256;2024-01-30T12:47:30;28.60;39.10
33881;DHT22;20172;47.530;10.256;2024-01-30T12:49:55;28.20;39.20
33881;DHT22;20172;47.530;10.256;2024-01-30T12:52:21;27.80;38.80
33881;DHT22;20172;47.530;10.256;2024-01-30T12:54:47;27.40;38.40
33881;DHT22;20172;47.530;10.256;2024-01-30T12:57:13;27.30;38.90
33881;DHT22;20172;47.530;10.256;2024-01-30T12:59:38;27.50;39.30
33881;DHT22;20172;47.530;10.256;2024-01-30T13:02:04;27.60;38.90
33881;DHT22;20172;47.530;10.256;2024-01-30T13:04:30;27.90;40.00
33881;DHT22;20172;47.530;10.256;2024-01-30T13:06:55;27.80;39.60
33881;DHT22;20172;47.530;10.256;2024-01-30T13:09:22;27.50;39.70
33881;DHT22;20172;47.530;10.256;2024-01-30T13:11:48;27.10;39.80
33881;DHT22;20172;47.530;10.256;2024-01-30T13:14:14;26.90;39.90
33881;DHT22;20172;47.530;10.256;2024-01-30T13:16:39;26.60;40.30
33881;DHT22;20172;47.530;10.256;2024-01-30T13:19:05;26.50;40.50
33881;DHT22;20172;47.530;10.256;2024-01-30T13:21:31;26.20;40.60
33881;DHT22;20172;47.530;10.256;2024-01-30T13:23:56;25.60;41.40
33881;DHT22;20172;47.530;10.256;2024-01-30T13:26:22;25.50;41.60
33881;DHT22;20172;47.530;10.256;2024-01-30T13:28:47;25.80;40.90
33881;DHT22;20172;47.530;10.256;2024-01-30T13:31:16;26.10;40.10
33881;DHT22;20172;47.530;10.256;2024-01-30T13:33:41;26.60;39.90
33881;DHT22;20172;47.530;10.256;2024-01-30T13:36:07;27.40;40.00
33881;DHT22;20172;47.530;10.256;2024-01-30T13:38:33;27.70;40.10
33881;DHT22;20172;47.530;10.256;2024-01-30T13:40:59;28.10;40.20
33881;DHT22;20172;47.530;10.256;2024-01-30T13:43:24;28.10;39.90
33881;DHT22;20172;47.530;10.256;2024-01-30T13:45:50;28.00;39.80
33881;DHT22;20172;47.530;10.256;2024-01-30T13:48:15;27.50;38.90
33881;DHT22;20172;47.530;10.256;2024-01-30T13:50:41;27.30;39.00
33881;DHT22;20172;47.530;10.256;2024-01-30T13:53:07;27.50;39.40
33881;DHT22;20172;47.530;10.256;2024-01-30T13:55:32;27.60;39.70
33881;DHT22;20172;47.530;10.256;2024-01-30T13:57:58;27.80;39.90
33881;DHT22;20172;47.530;10.256;2024-01-30T14:00:23;28.20;39.70
33881;DHT22;20172;47.530;10.256;2024-01-30T14:02:51;28.50;39.10
33881;DHT22;20172;47.530;10.256;2024-01-30T14:05:28;28.80;39.30
33881;DHT22;20172;47.530;10.256;2024-01-30T14:07:54;29.50;39.40
33881;DHT22;20172;47.530;10.256;2024-01-30T14:10:20;30.20;38.60
33881;DHT22;20172;47.530;10.256;2024-01-30T14:12:46;30.50;37.90
33881;DHT22;20172;47.530;10.256;2024-01-30T14:15:13;30.70;37.30
33881;DHT22;20172;47.530;10.256;2024-01-30T14:17:40;30.50;37.30
33881;DHT22;20172;47.530;10.256;2024-01-30T14:20:06;30.20;37.50
33881;DHT22;20172;47.530;10.256;2024-01-30T14:22:32;29.30;37.70
33881;DHT22;20172;47.530;10.256;2024-01-30T14:24:58;28.10;38.30
33881;DHT22;20172;47.530;10.256;2024-01-30T14:27:24;26.60;39.00
33881;DHT22;20172;47.530;10.256;2024-01-30T14:29:50;25.40;39.80
33881;DHT22;20172;47.530;10.256;2024-01-30T14:32:15;24.30;40.70
33881;DHT22;20172;47.530;10.256;2024-01-30T14:34:41;23.30;41.70
33881;DHT22;20172;47.530;10.256;2024-01-30T14:37:07;22.50;42.60
33881;DHT22;20172;47.530;10.256;2024-01-30T14:39:32;21.80;43.50
33881;DHT22;20172;47.530;10.256;2024-01-30T14:41:59;21.20;43.90
33881;DHT22;20172;47.530;10.256;2024-01-30T14:44:24;20.70;44.30
33881;DHT22;20172;47.530;10.256;2024-01-30T14:46:50;20.20;45.20
33881;DHT22;20172;47.530;10.256;2024-01-30T14:49:15;19.70;46.70
33881;DHT22;20172;47.530;10.256;2024-01-30T14:51:41;19.20;48.20
33881;DHT22;20172;47.530;10.256;2024-01-30T14:54:07;18.70;49.50
33881;DHT22;20172;47.530;10.256;2024-01-30T14:56:32;18.10;50.20
33881;DHT22;20172;47.530;10.256;2024-01-30T14:58:58;17.60;51.20
33881;DHT22;20172;47.530;10.256;2024-01-30T15:01:24;17.20;52.20
33881;DHT22;20172;47.530;10.256;2024-01-30T15:03:49;16.70;52.60
33881;DHT22;20172;47.530;10.256;2024-01-30T15:06:16;16.40;53.10
33881;DHT22;20172;47.530;10.256;2024-01-30T15:08:42;16.20;53.70
33881;DHT22;20172;47.530;10.256;2024-01-30T15:11:07;15.90;54.80
33881;DHT22;20172;47.530;10.256;2024-01-30T15:13:33;15.60;55.30
33881;DHT22;20172;47.530;10.256;2024-01-30T15:15:58;15.30;56.10
33881;DHT22;20172;47.530;10.256;2024-01-30T15:18:24;15.00;56.60
33881;DHT22;20172;47.530;10.256;2024-01-30T15:20:50;14.60;57.00